Terminal Aerodrome Forecast
Issued by NWS Norman, OK

Home | Current Version | Previous Version | Text Only | Print | Product List | Glossary On
Versions: 1 2 3 4 5 6 7 8 9 10 11 12 13 14
000
FTUS44 KOUN 242326
TAFOKC
TAF
KOKC 242326Z 2500/2524 33011KT P6SM SCT250
     FM250500 15005KT P6SM SKC
     FM251500 17014G20KT P6SM SKC
     FM252000 17018G27KT P6SM SCT250=

USA.gov is the U.S. government's official web portal to all federal, state and local government web resources and services.